sensor_id;sensor_type;location;lat;lon;timestamp;pressure;altitude;pressure_sealevel;temperature;humidity
23318;BME280;11831;55.918;37.746;2023-04-01T00:01:44;97905.97;;;6.67;0.00
23318;BME280;11831;55.918;37.746;2023-04-01T00:04:10;97898.00;;;6.67;0.00
23318;BME280;11831;55.918;37.746;2023-04-01T00:06:36;97900.06;;;6.77;0.00
23318;BME280;11831;55.918;37.746;2023-04-01T00:09:03;97898.91;;;6.73;0.00
23318;BME280;11831;55.918;37.746;2023-04-01T00:11:29;97901.06;;;6.59;0.00
23318;BME280;11831;55.918;37.746;2023-04-01T00:13:56;97901.97;;;6.81;0.00
23318;BME280;11831;55.918;37.746;2023-04-01T00:16:22;97897.31;;;6.89;0.00
23318;BME280;11831;55.918;37.746;2023-04-01T00:18:49;97897.03;;;6.73;0.00
23318;BME280;11831;55.918;37.746;2023-04-01T00:21:17;97901.78;;;6.54;0.00
23318;BME280;11831;55.918;37.746;2023-04-01T00:23:43;97898.47;;;6.47;0.00
23318;BME280;11831;55.918;37.746;2023-04-01T00:26:10;97897.22;;;6.10;0.00
23318;BME280;11831;55.918;37.746;2023-04-01T00:28:38;97890.31;;;6.37;0.00
23318;BME280;11831;55.918;37.746;2023-04-01T00:31:06;97898.97;;;6.16;0.00
23318;BME280;11831;55.918;37.746;2023-04-01T00:33:33;97896.63;;;6.19;0.00
23318;BME280;11831;55.918;37.746;2023-04-01T00:36:15;97891.13;;;6.09;0.00
23318;BME280;11831;55.918;37.746;2023-04-01T00:38:43;97897.91;;;5.65;0.00
23318;BME280;11831;55.918;37.746;2023-04-01T00:41:10;97893.28;;;5.72;0.00
23318;BME280;11831;55.918;37.746;2023-04-01T00:43:41;97900.88;;;5.92;0.00
23318;BME280;11831;55.918;37.746;2023-04-01T00:46:08;97893.91;;;6.03;0.00
23318;BME280;11831;55.918;37.746;2023-04-01T00:48:36;97897.03;;;6.00;0.00
23318;BME280;11831;55.918;37.746;2023-04-01T00:51:07;97897.53;;;6.25;0.00
23318;BME280;11831;55.918;37.746;2023-04-01T00:53:41;97891.47;;;6.13;0.00
23318;BME280;11831;55.918;37.746;2023-04-01T00:56:18;97888.91;;;6.46;0.00
23318;BME280;11831;55.918;37.746;2023-04-01T00:58:51;97895.78;;;6.31;0.00
23318;BME280;11831;55.918;37.746;2023-04-01T01:01:22;97883.13;;;6.49;0.00
23318;BME280;11831;55.918;37.746;2023-04-01T01:03:49;97894.47;;;6.05;0.00
23318;BME280;11831;55.918;37.746;2023-04-01T01:06:43;97896.19;;;6.11;0.00
23318;BME280;11831;55.918;37.746;2023-04-01T01:11:51;97889.81;;;5.72;0.00
23318;BME280;11831;55.918;37.746;2023-04-01T01:15:06;97887.72;;;5.74;0.00
23318;BME280;11831;55.918;37.746;2023-04-01T01:26:04;97883.44;;;6.53;0.00
23318;BME280;11831;55.918;37.746;2023-04-01T01:36:45;97889.06;;;6.73;0.00
23318;BME280;11831;55.918;37.746;2023-04-01T01:39:14;97893.94;;;6.76;0.00
23318;BME280;11831;55.918;37.746;2023-04-01T01:41:42;97894.53;;;6.67;0.00
23318;BME280;11831;55.918;37.746;2023-04-01T01:44:12;97894.06;;;6.70;0.00
23318;BME280;11831;55.918;37.746;2023-04-01T01:46:42;97894.78;;;6.65;0.00
23318;BME280;11831;55.918;37.746;2023-04-01T01:49:11;97890.28;;;6.49;0.00
23318;BME280;11831;55.918;37.746;2023-04-01T01:51:39;97892.78;;;6.72;0.00
23318;BME280;11831;55.918;37.746;2023-04-01T01:54:06;97895.59;;;6.66;0.00
23318;BME280;11831;55.918;37.746;2023-04-01T01:56:34;97895.38;;;6.84;0.00
23318;BME280;11831;55.918;37.746;2023-04-01T01:59:03;97887.25;;;6.74;0.00
23318;BME280;11831;55.918;37.746;2023-04-01T02:01:35;97885.88;;;6.88;0.00
23318;BME280;11831;55.918;37.746;2023-04-01T02:04:04;97888.59;;;6.93;0.00
23318;BME280;11831;55.918;37.746;2023-04-01T02:06:34;97887.41;;;6.84;0.00
23318;BME280;11831;55.918;37.746;2023-04-01T02:09:06;97893.28;;;6.86;0.00
23318;BME280;11831;55.918;37.746;2023-04-01T02:11:59;97901.00;;;6.88;0.00
23318;BME280;11831;55.918;37.746;2023-04-01T02:17:11;97901.75;;;6.83;0.00
23318;BME280;11831;55.918;37.746;2023-04-01T02:19:46;97909.34;;;6.63;0.00
23318;BME280;11831;55.918;37.746;2023-04-01T02:22:22;97904.06;;;6.79;0.00
23318;BME280;11831;55.918;37.746;2023-04-01T02:24:53;97905.13;;;6.95;0.00
23318;BME280;11831;55.918;37.746;2023-04-01T02:27:21;97907.22;;;7.10;0.00
23318;BME280;11831;55.918;37.746;2023-04-01T02:29:47;97909.56;;;7.06;0.00
23318;BME280;11831;55.918;37.746;2023-04-01T02:32:14;97910.16;;;6.46;0.00
23318;BME280;11831;55.918;37.746;2023-04-01T02:34:42;97910.63;;;6.60;0.00
23318;BME280;11831;55.918;37.746;2023-04-01T02:37:09;97914.34;;;6.02;0.00
23318;BME280;11831;55.918;37.746;2023-04-01T02:39:36;97918.03;;;5.78;0.00
23318;BME280;11831;55.918;37.746;2023-04-01T02:42:03;97922.81;;;5.41;0.00
23318;BME280;11831;55.918;37.746;2023-04-01T02:44:29;97924.22;;;6.18;0.00
23318;BME280;11831;55.918;37.746;2023-04-01T02:46:56;97921.41;;;6.25;0.00
23318;BME280;11831;55.918;37.746;2023-04-01T02:49:22;97923.91;;;6.03;0.00
23318;BME280;11831;55.918;37.746;2023-04-01T02:51:49;97923.97;;;6.48;0.00
23318;BME280;11831;55.918;37.746;2023-04-01T02:54:15;97917.72;;;6.54;0.00
23318;BME280;11831;55.918;37.746;2023-04-01T02:56:42;97916.12;;;6.70;0.00
23318;BME280;11831;55.918;37.746;2023-04-01T02:59:08;97913.09;;;6.78;0.00
23318;BME280;11831;55.918;37.746;2023-04-01T03:01:34;97910.19;;;6.97;0.00
23318;BME280;11831;55.918;37.746;2023-04-01T03:04:01;97903.50;;;6.77;0.00
23318;BME280;11831;55.918;37.746;2023-04-01T03:06:27;97906.00;;;6.84;0.00
23318;BME280;11831;55.918;37.746;2023-04-01T03:08:53;97911.38;;;6.27;0.00
23318;BME280;11831;55.918;37.746;2023-04-01T03:11:20;97918.22;;;6.68;0.00
23318;BME280;11831;55.918;37.746;2023-04-01T03:13:47;97924.38;;;6.00;0.00
23318;BME280;11831;55.918;37.746;2023-04-01T03:16:15;97925.59;;;6.09;0.00
23318;BME280;11831;55.918;37.746;2023-04-01T03:18:41;97926.44;;;6.38;0.00
23318;BME280;11831;55.918;37.746;2023-04-01T03:21:18;97925.31;;;5.94;0.00
23318;BME280;11831;55.918;37.746;2023-04-01T03:23:45;97921.91;;;6.10;0.00
23318;BME280;11831;55.918;37.746;2023-04-01T03:26:12;97925.31;;;5.82;0.00
23318;BME280;11831;55.918;37.746;2023-04-01T03:28:39;97926.72;;;6.25;0.00
23318;BME280;11831;55.918;37.746;2023-04-01T03:31:06;97927.53;;;5.50;0.00
23318;BME280;11831;55.918;37.746;2023-04-01T03:33:32;97940.56;;;6.27;0.00
23318;BME280;11831;55.918;37.746;2023-04-01T03:35:59;97937.91;;;6.56;0.00
23318;BME280;11831;55.918;37.746;2023-04-01T03:38:26;97943.06;;;6.45;0.00
23318;BME280;11831;55.918;37.746;2023-04-01T03:41:25;97948.22;;;6.69;0.00
23318;BME280;11831;55.918;37.746;2023-04-01T03:43:53;97943.37;;;6.20;0.00
23318;BME280;11831;55.918;37.746;2023-04-01T03:46:20;97944.75;;;6.51;0.00
23318;BME280;11831;55.918;37.746;2023-04-01T03:48:47;97949.97;;;6.46;0.00
23318;BME280;11831;55.918;37.746;2023-04-01T03:51:14;97948.94;;;6.47;0.00
23318;BME280;11831;55.918;37.746;2023-04-01T03:53:40;97950.53;;;6.20;0.00
23318;BME280;11831;55.918;37.746;2023-04-01T03:56:07;97959.53;;;6.47;0.00
23318;BME280;11831;55.918;37.746;2023-04-01T03:58:35;97957.03;;;5.66;0.00
23318;BME280;11831;55.918;37.746;2023-04-01T04:01:02;97955.78;;;6.60;0.00
23318;BME280;11831;55.918;37.746;2023-04-01T04:03:28;97961.50;;;6.52;0.00
23318;BME280;11831;55.918;37.746;2023-04-01T04:05:55;97960.34;;;6.08;0.00
23318;BME280;11831;55.918;37.746;2023-04-01T04:08:22;97964.13;;;6.97;0.00
23318;BME280;11831;55.918;37.746;2023-04-01T04:10:55;97966.69;;;6.75;0.00
23318;BME280;11831;55.918;37.746;2023-04-01T04:13:21;97968.19;;;7.16;0.00
23318;BME280;11831;55.918;37.746;2023-04-01T04:15:48;97972.38;;;7.12;0.00
23318;BME280;11831;55.918;37.746;2023-04-01T04:18:14;97979.03;;;6.98;0.00
23318;BME280;11831;55.918;37.746;2023-04-01T04:20:45;97976.22;;;6.88;0.00
23318;BME280;11831;55.918;37.746;2023-04-01T04:23:14;97976.28;;;6.76;0.00
23318;BME280;11831;55.918;37.746;2023-04-01T04:25:40;97981.44;;;6.83;0.00
23318;BME280;11831;55.918;37.746;2023-04-01T04:28:07;97978.78;;;6.26;0.00
23318;BME280;11831;55.918;37.746;2023-04-01T04:30:34;97981.41;;;6.26;0.00
23318;BME280;11831;55.918;37.746;2023-04-01T04:33:00;97983.72;;;6.63;0.00
23318;BME280;11831;55.918;37.746;2023-04-01T04:35:26;97986.41;;;6.22;0.00
23318;BME280;11831;55.918;37.746;2023-04-01T04:37:53;97987.00;;;5.78;0.00
23318;BME280;11831;55.918;37.746;2023-04-01T04:40:19;97989.31;;;5.86;0.00
23318;BME280;11831;55.918;37.746;2023-04-01T04:42:45;97997.28;;;5.74;0.00
23318;BME280;11831;55.918;37.746;2023-04-01T04:45:12;97995.66;;;5.85;0.00
23318;BME280;11831;55.918;37.746;2023-04-01T04:47:38;98003.72;;;5.78;0.00
23318;BME280;11831;55.918;37.746;2023-04-01T04:50:06;98001.03;;;6.25;0.00
23318;BME280;11831;55.918;37.746;2023-04-01T04:52:32;98002.75;;;6.31;0.00
23318;BME280;11831;55.918;37.746;2023-04-01T04:54:59;98009.94;;;6.59;0.00
23318;BME280;11831;55.918;37.746;2023-04-01T04:57:25;98006.41;;;6.82;0.00
23318;BME280;11831;55.918;37.746;2023-04-01T04:59:52;98016.22;;;6.81;0.00
23318;BME280;11831;55.918;37.746;2023-04-01T05:02:18;98014.19;;;6.32;0.00
23318;BME280;11831;55.918;37.746;2023-04-01T05:04:45;98022.66;;;6.17;0.00
23318;BME280;11831;55.918;37.746;2023-04-01T05:07:11;98018.81;;;6.25;0.00
23318;BME280;11831;55.918;37.746;2023-04-01T05:09:37;98023.44;;;6.06;0.00
23318;BME280;11831;55.918;37.746;2023-04-01T05:12:04;98034.84;;;5.71;0.00
23318;BME280;11831;55.918;37.746;2023-04-01T05:14:31;98030.16;;;5.85;0.00
23318;BME280;11831;55.918;37.746;2023-04-01T05:16:57;98034.56;;;5.91;0.00
23318;BME280;11831;55.918;37.746;2023-04-01T05:19:24;98032.56;;;6.10;0.00
23318;BME280;11831;55.918;37.746;2023-04-01T05:21:50;98033.75;;;6.54;0.00
23318;BME280;11831;55.918;37.746;2023-04-01T05:24:16;98034.47;;;6.49;0.00
23318;BME280;11831;55.918;37.746;2023-04-01T05:26:43;98032.38;;;6.51;0.00
23318;BME280;11831;55.918;37.746;2023-04-01T05:29:09;98033.34;;;6.74;0.00
23318;BME280;11831;55.918;37.746;2023-04-01T05:31:36;98027.22;;;6.33;0.00
23318;BME280;11831;55.918;37.746;2023-04-01T05:34:02;98034.47;;;6.78;0.00
23318;BME280;11831;55.918;37.746;2023-04-01T05:36:29;98027.78;;;6.35;0.00
23318;BME280;11831;55.918;37.746;2023-04-01T05:38:55;98027.44;;;6.32;0.00
23318;BME280;11831;55.918;37.746;2023-04-01T05:41:22;98021.94;;;6.10;0.00
23318;BME280;11831;55.918;37.746;2023-04-01T05:43:49;98037.16;;;5.79;0.00
23318;BME280;11831;55.918;37.746;2023-04-01T05:46:17;98027.25;;;6.10;0.00
23318;BME280;11831;55.918;37.746;2023-04-01T05:48:44;98032.78;;;6.08;0.00
23318;BME280;11831;55.918;37.746;2023-04-01T05:51:14;98037.75;;;6.16;0.00
23318;BME280;11831;55.918;37.746;2023-04-01T05:53:41;98040.53;;;5.98;0.00
23318;BME280;11831;55.918;37.746;2023-04-01T05:56:08;98038.78;;;6.67;0.00
23318;BME280;11831;55.918;37.746;2023-04-01T05:58:36;98046.41;;;6.92;0.00
23318;BME280;11831;55.918;37.746;2023-04-01T06:01:05;98044.88;;;6.68;0.00
23318;BME280;11831;55.918;37.746;2023-04-01T06:03:32;98047.88;;;7.00;0.00
23318;BME280;11831;55.918;37.746;2023-04-01T06:05:59;98053.16;;;6.83;0.00
23318;BME280;11831;55.918;37.746;2023-04-01T06:08:28;98056.75;;;7.51;0.00
23318;BME280;11831;55.918;37.746;2023-04-01T06:11:19;98058.03;;;7.48;0.00
23318;BME280;11831;55.918;37.746;2023-04-01T06:34:25;98060.53;;;8.27;0.00
23318;BME280;11831;55.918;37.746;2023-04-01T06:36:28;98065.03;;;8.65;0.00
23318;BME280;11831;55.918;37.746;2023-04-01T06:47:46;98068.56;;;8.92;0.00
23318;BME280;11831;55.918;37.746;2023-04-01T06:53:21;98076.44;;;9.09;0.00
23318;BME280;11831;55.918;37.746;2023-04-01T06:56:12;98077.44;;;8.76;0.00
23318;BME280;11831;55.918;37.746;2023-04-01T06:59:09;98083.16;;;9.12;0.00
23318;BME280;11831;55.918;37.746;2023-04-01T07:01:44;98074.41;;;8.89;0.00
23318;BME280;11831;55.918;37.746;2023-04-01T07:04:24;98077.97;;;9.27;0.00
23318;BME280;11831;55.918;37.746;2023-04-01T07:07:02;98081.78;;;9.09;0.00
23318;BME280;11831;55.918;37.746;2023-04-01T07:09:37;98081.84;;;9.41;0.00
23318;BME280;11831;55.918;37.746;2023-04-01T07:12:12;98078.41;;;9.46;0.00
23318;BME280;11831;55.918;37.746;2023-04-01T07:14:43;98086.31;;;9.62;0.00
23318;BME280;11831;55.918;37.746;2023-04-01T07:17:36;98077.47;;;9.03;0.00
23318;BME280;11831;55.918;37.746;2023-04-01T07:22:51;98101.00;;;7.90;0.00
23318;BME280;11831;55.918;37.746;2023-04-01T07:25:37;98094.94;;;8.12;0.00
23318;BME280;11831;55.918;37.746;2023-04-01T07:28:16;98099.62;;;7.88;0.00
23318;BME280;11831;55.918;37.746;2023-04-01T07:36:36;98095.16;;;8.27;0.00
23318;BME280;11831;55.918;37.746;2023-04-01T07:39:17;98100.31;;;8.17;0.00
23318;BME280;11831;55.918;37.746;2023-04-01T07:42:05;98092.03;;;8.13;0.00
23318;BME280;11831;55.918;37.746;2023-04-01T07:47:39;98096.84;;;9.20;0.00
23318;BME280;11831;55.918;37.746;2023-04-01T07:50:31;98098.78;;;9.03;0.00
23318;BME280;11831;55.918;37.746;2023-04-01T08:01:39;98110.03;;;9.32;0.00
23318;BME280;11831;55.918;37.746;2023-04-01T08:06:50;98116.25;;;10.07;0.00
23318;BME280;11831;55.918;37.746;2023-04-01T08:09:59;98123.22;;;9.76;0.00
23318;BME280;11831;55.918;37.746;2023-04-01T08:12:37;98126.37;;;8.70;0.00
23318;BME280;11831;55.918;37.746;2023-04-01T08:15:26;98129.91;;;8.76;0.00
23318;BME280;11831;55.918;37.746;2023-04-01T08:20:53;98131.50;;;9.74;0.00
23318;BME280;11831;55.918;37.746;2023-04-01T08:23:26;98138.78;;;8.81;0.00
23318;BME280;11831;55.918;37.746;2023-04-01T08:28:45;98131.03;;;8.80;0.00
23318;BME280;11831;55.918;37.746;2023-04-01T08:31:16;98127.28;;;9.24;0.00
23318;BME280;11831;55.918;37.746;2023-04-01T08:33:47;98136.16;;;8.86;0.00
23318;BME280;11831;55.918;37.746;2023-04-01T08:36:19;98138.38;;;9.38;0.00
23318;BME280;11831;55.918;37.746;2023-04-01T08:39:04;98142.94;;;9.70;0.00
23318;BME280;11831;55.918;37.746;2023-04-01T08:42:01;98143.16;;;9.95;0.00
23318;BME280;11831;55.918;37.746;2023-04-01T08:51:13;98143.31;;;10.15;0.00
23318;BME280;11831;55.918;37.746;2023-04-01T08:56:15;98146.34;;;11.39;0.00
23318;BME280;11831;55.918;37.746;2023-04-01T09:06:51;98144.31;;;10.88;0.00
23318;BME280;11831;55.918;37.746;2023-04-01T09:12:49;98151.38;;;11.20;0.00
23318;BME280;11831;55.918;37.746;2023-04-01T09:20:45;98160.22;;;11.31;0.00
23318;BME280;11831;55.918;37.746;2023-04-01T09:23:42;98159.00;;;12.55;0.00
23318;BME280;11831;55.918;37.746;2023-04-01T09:26:44;98161.69;;;12.55;0.00
23318;BME280;11831;55.918;37.746;2023-04-01T09:29:41;98169.22;;;12.18;0.00
23318;BME280;11831;55.918;37.746;2023-04-01T09:35:23;98168.97;;;13.14;0.00
23318;BME280;11831;55.918;37.746;2023-04-01T09:43:43;98180.94;;;10.41;0.00
23318;BME280;11831;55.918;37.746;2023-04-01T09:46:31;98176.94;;;10.11;0.00
23318;BME280;11831;55.918;37.746;2023-04-01T09:52:14;98191.19;;;10.59;0.00
23318;BME280;11831;55.918;37.746;2023-04-01T09:55:19;98179.00;;;11.41;0.00
23318;BME280;11831;55.918;37.746;2023-04-01T10:03:30;98179.28;;;11.39;0.00
23318;BME280;11831;55.918;37.746;2023-04-01T10:43:18;98211.81;;;12.60;0.00
23318;BME280;11831;55.918;37.746;2023-04-01T10:51:33;98229.25;;;12.32;0.00
23318;BME280;11831;55.918;37.746;2023-04-01T11:03:10;98238.84;;;12.73;0.00
23318;BME280;11831;55.918;37.746;2023-04-01T11:37:12;98238.00;;;22.84;0.00
23318;BME280;11831;55.918;37.746;2023-04-01T11:40:03;98233.16;;;22.69;0.00
23318;BME280;11831;55.918;37.746;2023-04-01T11:42:55;98228.06;;;23.49;0.00
23318;BME280;11831;55.918;37.746;2023-04-01T11:45:36;98240.37;;;24.92;0.00
23318;BME280;11831;55.918;37.746;2023-04-01T11:53:43;98238.81;;;22.64;0.00
23318;BME280;11831;55.918;37.746;2023-04-01T11:59:32;98255.44;;;21.29;0.00
23318;BME280;11831;55.918;37.746;2023-04-01T12:04:51;98250.00;;;19.30;0.00
23318;BME280;11831;55.918;37.746;2023-04-01T12:13:38;98247.16;;;19.44;0.00
23318;BME280;11831;55.918;37.746;2023-04-01T12:24:45;98264.47;;;14.73;0.00
23318;BME280;11831;55.918;37.746;2023-04-01T12:41:17;98252.91;;;13.45;0.00
23318;BME280;11831;55.918;37.746;2023-04-01T12:52:07;98261.13;;;12.64;0.00
23318;BME280;11831;55.918;37.746;2023-04-01T12:57:50;98265.66;;;12.23;0.00
23318;BME280;11831;55.918;37.746;2023-04-01T13:03:29;98264.69;;;11.61;0.00
23318;BME280;11831;55.918;37.746;2023-04-01T13:14:33;98279.63;;;11.42;0.00
23318;BME280;11831;55.918;37.746;2023-04-01T13:19:51;98283.84;;;10.85;0.00
23318;BME280;11831;55.918;37.746;2023-04-01T13:22:20;98277.38;;;11.18;0.00
23318;BME280;11831;55.918;37.746;2023-04-01T13:27:38;98277.63;;;11.17;0.00
23318;BME280;11831;55.918;37.746;2023-04-01T13:30:33;98280.81;;;11.14;0.00
23318;BME280;11831;55.918;37.746;2023-04-01T13:33:25;98286.47;;;11.23;0.00
23318;BME280;11831;55.918;37.746;2023-04-01T13:36:40;98287.50;;;11.64;0.00
23318;BME280;11831;55.918;37.746;2023-04-01T13:39:39;98291.84;;;11.28;0.00
23318;BME280;11831;55.918;37.746;2023-04-01T13:42:26;98292.97;;;10.89;0.00
23318;BME280;11831;55.918;37.746;2023-04-01T13:45:01;98295.94;;;10.93;0.00
23318;BME280;11831;55.918;37.746;2023-04-01T13:50:32;98296.44;;;11.32;0.00
23318;BME280;11831;55.918;37.746;2023-04-01T13:53:03;98293.87;;;11.58;0.00
23318;BME280;11831;55.918;37.746;2023-04-01T13:55:35;98297.59;;;11.57;0.00
23318;BME280;11831;55.918;37.746;2023-04-01T14:01:15;98300.97;;;10.84;0.00
23318;BME280;11831;55.918;37.746;2023-04-01T14:06:58;98312.16;;;10.44;0.00
23318;BME280;11831;55.918;37.746;2023-04-01T14:33:05;98338.81;;;9.90;0.00
23318;BME280;11831;55.918;37.746;2023-04-01T14:35:40;98339.28;;;9.82;0.00
23318;BME280;11831;55.918;37.746;2023-04-01T14:40:56;98347.47;;;9.54;0.00
23318;BME280;11831;55.918;37.746;2023-04-01T14:43:28;98355.44;;;9.76;0.00
23318;BME280;11831;55.918;37.746;2023-04-01T14:48:35;98348.38;;;9.86;0.00
23318;BME280;11831;55.918;37.746;2023-04-01T14:53:54;98347.53;;;9.81;0.00
23318;BME280;11831;55.918;37.746;2023-04-01T14:59:14;98360.69;;;9.87;0.00
23318;BME280;11831;55.918;37.746;2023-04-01T15:22:55;98392.37;;;9.23;0.00
23318;BME280;11831;55.918;37.746;2023-04-01T15:28:16;98406.34;;;9.14;0.00
23318;BME280;11831;55.918;37.746;2023-04-01T15:31:08;98404.91;;;9.23;0.00
23318;BME280;11831;55.918;37.746;2023-04-01T15:33:46;98406.78;;;9.22;0.00
23318;BME280;11831;55.918;37.746;2023-04-01T15:38:54;98405.41;;;9.20;0.00
23318;BME280;11831;55.918;37.746;2023-04-01T15:43:55;98416.88;;;9.03;0.00
23318;BME280;11831;55.918;37.746;2023-04-01T15:46:24;98414.69;;;9.00;0.00
23318;BME280;11831;55.918;37.746;2023-04-01T15:51:22;98417.91;;;9.36;0.00
23318;BME280;11831;55.918;37.746;2023-04-01T15:54:06;98421.75;;;9.45;0.00
23318;BME280;11831;55.918;37.746;2023-04-01T15:59:12;98437.72;;;9.23;0.00
23318;BME280;11831;55.918;37.746;2023-04-01T16:01:50;98434.31;;;9.28;0.00
23318;BME280;11831;55.918;37.746;2023-04-01T16:04:32;98438.09;;;8.82;0.00
23318;BME280;11831;55.918;37.746;2023-04-01T16:07:21;98438.28;;;8.92;0.00
23318;BME280;11831;55.918;37.746;2023-04-01T16:15:12;98452.13;;;8.60;0.00
23318;BME280;11831;55.918;37.746;2023-04-01T16:20:55;98457.56;;;8.14;0.00
23318;BME280;11831;55.918;37.746;2023-04-01T16:38:58;98484.25;;;8.99;0.00
23318;BME280;11831;55.918;37.746;2023-04-01T16:41:31;98481.53;;;9.27;0.00
23318;BME280;11831;55.918;37.746;2023-04-01T16:46:44;98488.06;;;9.53;0.00
23318;BME280;11831;55.918;37.746;2023-04-01T16:54:26;98492.19;;;9.44;0.00
23318;BME280;11831;55.918;37.746;2023-04-01T16:57:04;98499.59;;;9.76;0.00
23318;BME280;11831;55.918;37.746;2023-04-01T16:59:55;98491.50;;;9.87;0.00
23318;BME280;11831;55.918;37.746;2023-04-01T17:02:35;98501.88;;;10.06;0.00
23318;BME280;11831;55.918;37.746;2023-04-01T17:05:21;98498.91;;;10.02;0.00
23318;BME280;11831;55.918;37.746;2023-04-01T17:13:40;98510.69;;;9.84;0.00
23318;BME280;11831;55.918;37.746;2023-04-01T17:18:53;98501.63;;;10.46;0.00
23318;BME280;11831;55.918;37.746;2023-04-01T17:23:50;98501.06;;;10.44;0.00
23318;BME280;11831;55.918;37.746;2023-04-01T17:28:57;98504.41;;;10.56;0.00
23318;BME280;11831;55.918;37.746;2023-04-01T17:31:32;98503.50;;;10.45;0.00
23318;BME280;11831;55.918;37.746;2023-04-01T17:36:44;98511.06;;;9.93;0.00
23318;BME280;11831;55.918;37.746;2023-04-01T17:49:54;98504.56;;;10.44;0.00
23318;BME280;11831;55.918;37.746;2023-04-01T17:54:58;98518.16;;;10.43;0.00
23318;BME280;11831;55.918;37.746;2023-04-01T17:57:31;98517.28;;;9.99;0.00
23318;BME280;11831;55.918;37.746;2023-04-01T18:03:09;98512.41;;;10.12;0.00
23318;BME280;11831;55.918;37.746;2023-04-01T18:08:12;98527.34;;;10.30;0.00
23318;BME280;11831;55.918;37.746;2023-04-01T18:13:18;98529.00;;;10.14;0.00
23318;BME280;11831;55.918;37.746;2023-04-01T18:23:36;98532.59;;;9.86;0.00
23318;BME280;11831;55.918;37.746;2023-04-01T18:26:06;98532.94;;;9.56;0.00
23318;BME280;11831;55.918;37.746;2023-04-01T18:28:54;98536.56;;;9.33;0.00
23318;BME280;11831;55.918;37.746;2023-04-01T18:31:23;98536.16;;;9.42;0.00
23318;BME280;11831;55.918;37.746;2023-04-01T18:38:50;98549.03;;;9.28;0.00
23318;BME280;11831;55.918;37.746;2023-04-01T18:49:42;98561.84;;;8.86;0.00
23318;BME280;11831;55.918;37.746;2023-04-01T18:52:13;98563.50;;;8.75;0.00
23318;BME280;11831;55.918;37.746;2023-04-01T18:54:44;98572.56;;;8.74;0.00
23318;BME280;11831;55.918;37.746;2023-04-01T18:57:12;98566.31;;;8.68;0.00
23318;BME280;11831;55.918;37.746;2023-04-01T18:59:45;98582.13;;;8.58;0.00
23318;BME280;11831;55.918;37.746;2023-04-01T19:02:36;98574.16;;;8.75;0.00
23318;BME280;11831;55.918;37.746;2023-04-01T19:05:14;98574.03;;;8.82;0.00
23318;BME280;11831;55.918;37.746;2023-04-01T19:07:44;98580.78;;;8.73;0.00
23318;BME280;11831;55.918;37.746;2023-04-01T19:10:15;98594.00;;;8.67;0.00
23318;BME280;11831;55.918;37.746;2023-04-01T19:25:57;98596.34;;;8.52;0.00
23318;BME280;11831;55.918;37.746;2023-04-01T19:28:43;98602.62;;;8.58;0.00
23318;BME280;11831;55.918;37.746;2023-04-01T19:31:21;98599.97;;;8.46;0.00
23318;BME280;11831;55.918;37.746;2023-04-01T19:36:37;98598.00;;;8.42;0.00
23318;BME280;11831;55.918;37.746;2023-04-01T19:39:23;98602.75;;;8.39;0.00
23318;BME280;11831;55.918;37.746;2023-04-01T19:44:41;98606.34;;;8.45;0.00
23318;BME280;11831;55.918;37.746;2023-04-01T19:52:02;98616.53;;;8.36;0.00
23318;BME280;11831;55.918;37.746;2023-04-01T19:57:09;98622.44;;;8.27;0.00
23318;BME280;11831;55.918;37.746;2023-04-01T20:07:13;98630.44;;;8.38;0.00
23318;BME280;11831;55.918;37.746;2023-04-01T20:14:56;98627.66;;;8.33;0.00
23318;BME280;11831;55.918;37.746;2023-04-01T20:25:19;98628.09;;;8.42;0.00
23318;BME280;11831;55.918;37.746;2023-04-01T20:27:59;98628.31;;;8.52;0.00
23318;BME280;11831;55.918;37.746;2023-04-01T20:31:09;98630.31;;;8.45;0.00
23318;BME280;11831;55.918;37.746;2023-04-01T20:38:35;98628.44;;;8.46;0.00
23318;BME280;11831;55.918;37.746;2023-04-01T20:46:07;98634.78;;;8.68;0.00
23318;BME280;11831;55.918;37.746;2023-04-01T20:51:13;98629.75;;;8.83;0.00
23318;BME280;11831;55.918;37.746;2023-04-01T20:53:50;98630.81;;;8.82;0.00
23318;BME280;11831;55.918;37.746;2023-04-01T21:06:52;98632.13;;;9.08;0.00
23318;BME280;11831;55.918;37.746;2023-04-01T21:12:19;98626.50;;;8.93;0.00
23318;BME280;11831;55.918;37.746;2023-04-01T21:25:37;98648.69;;;8.70;0.00
23318;BME280;11831;55.918;37.746;2023-04-01T21:30:56;98653.78;;;8.71;0.00
23318;BME280;11831;55.918;37.746;2023-04-01T21:36:03;98668.94;;;8.83;0.00
23318;BME280;11831;55.918;37.746;2023-04-01T22:05:10;98684.75;;;9.41;0.00
23318;BME280;11831;55.918;37.746;2023-04-01T22:17:39;98678.09;;;9.55;0.00
23318;BME280;11831;55.918;37.746;2023-04-01T22:20:16;98682.44;;;9.45;0.00
23318;BME280;11831;55.918;37.746;2023-04-01T22:22:52;98667.47;;;9.89;0.00
23318;BME280;11831;55.918;37.746;2023-04-01T22:26:05;98668.94;;;9.96;0.00
23318;BME280;11831;55.918;37.746;2023-04-01T22:28:12;98659.37;;;10.17;0.00
23318;BME280;11831;55.918;37.746;2023-04-01T22:30:45;98661.50;;;9.82;0.00
23318;BME280;11831;55.918;37.746;2023-04-01T22:38:49;98659.13;;;10.02;0.00
23318;BME280;11831;55.918;37.746;2023-04-01T22:43:58;98671.75;;;9.90;0.00
23318;BME280;11831;55.918;37.746;2023-04-01T22:49:00;98682.53;;;10.12;0.00
23318;BME280;11831;55.918;37.746;2023-04-01T22:54:17;98683.19;;;10.52;0.00
23318;BME280;11831;55.918;37.746;2023-04-01T22:56:47;98671.84;;;10.12;0.00
23318;BME280;11831;55.918;37.746;2023-04-01T23:01:43;98676.28;;;10.06;0.00
23318;BME280;11831;55.918;37.746;2023-04-01T23:04:11;98673.22;;;9.98;0.00
23318;BME280;11831;55.918;37.746;2023-04-01T23:06:42;98677.44;;;10.10;0.00
23318;BME280;11831;55.918;37.746;2023-04-01T23:09:28;98682.16;;;9.58;0.00
23318;BME280;11831;55.918;37.746;2023-04-01T23:12:05;98682.13;;;10.03;0.00
23318;BME280;11831;55.918;37.746;2023-04-01T23:15:16;98691.25;;;9.90;0.00
23318;BME280;11831;55.918;37.746;2023-04-01T23:22:25;98687.34;;;9.36;0.00
23318;BME280;11831;55.918;37.746;2023-04-01T23:24:55;98686.69;;;9.57;0.00
23318;BME280;11831;55.918;37.746;2023-04-01T23:27:31;98688.81;;;9.44;0.00
23318;BME280;11831;55.918;37.746;2023-04-01T23:30:01;98694.69;;;9.74;0.00
23318;BME280;11831;55.918;37.746;2023-04-01T23:32:27;98689.44;;;9.62;0.00
23318;BME280;11831;55.918;37.746;2023-04-01T23:34:54;98696.09;;;9.77;0.00